Time;durP1;ratioP1;P1;durP2;ratioP2;P2;SDS_P1;SDS_P2;PMS_P1;PMS_P2;Temp;Humidity;BMP_temperature;BMP_pressure;BME280_temperature;BME280_humidity;BME280_pressure;Samples;Min_cycle;Max_cycle;Signal;HPM_P1;HPM_P2
2023/03/27 00:01:00;;;;;;;7.57;2.22;;;;;;;5.99;99.11;101017.56;4915646;29;20065;-95
2023/03/27 00:03:28;;;;;;;6.65;2.10;;;;;;;5.92;100.00;101020.31;4914609;29;20128;-94
2023/03/27 00:06:08;;;;;;;7.20;2.38;;;;;;;6.10;99.25;101060.00;4915960;29;20032;-94
2023/03/27 00:08:35;;;;;;;6.00;1.77;;;;;;;5.92;100.00;101023.72;4900080;29;20104;-94
2023/03/27 00:11:00;;;;;;;8.98;2.05;;;;;;;5.99;100.00;101057.72;4899351;29;20016;-94
2023/03/27 00:13:27;;;;;;;3.92;2.03;;;;;;;6.02;100.00;101056.78;4899066;29;20025;-96
2023/03/27 00:15:54;;;;;;;5.00;1.92;;;;;;;5.92;100.00;101054.44;4899902;29;20028;-95
2023/03/27 00:18:20;;;;;;;5.72;1.67;;;;;;;6.00;100.00;101065.38;4915547;29;20039;-95
2023/03/27 00:20:46;;;;;;;4.97;2.58;;;;;;;5.91;100.00;101064.75;4899366;29;20379;-95
2023/03/27 00:23:12;;;;;;;4.55;1.77;;;;;;;6.04;100.00;101070.41;4899515;29;20510;-95
2023/03/27 00:25:39;;;;;;;11.60;2.33;;;;;;;5.92;100.00;101067.25;4899604;29;20499;-95
2023/03/27 00:28:07;;;;;;;10.18;2.38;;;;;;;5.88;100.00;101058.00;4900094;29;20051;-95
2023/03/27 00:30:34;;;;;;;5.38;2.45;;;;;;;6.00;100.00;101065.38;4899197;29;20021;-94
2023/03/27 00:32:59;;;;;;;12.20;2.03;;;;;;;5.81;99.13;101043.69;4899906;29;20043;-94
2023/03/27 00:35:27;;;;;;;6.03;1.77;;;;;;;5.89;100.00;101059.66;4915285;29;20025;-95
2023/03/27 00:37:52;;;;;;;4.82;2.03;;;;;;;6.07;100.00;101085.69;4899753;29;20032;-95
2023/03/27 00:40:18;;;;;;;3.80;1.88;;;;;;;5.90;96.52;101073.31;4915781;29;20020;-95
2023/03/27 00:42:50;;;;;;;12.48;2.33;;;;;;;5.90;93.48;101074.19;4900045;29;20020;-95
2023/03/27 00:45:20;;;;;;;;;;;;;;;5.93;93.48;101086.91;4900135;29;20024;-96
2023/03/27 00:47:53;;;;;;;7.68;1.77;;;;;;;5.91;95.16;101096.34;4899712;29;19940;-95
2023/03/27 00:50:23;;;;;;;10.80;2.17;;;;;;;5.99;93.61;101094.44;4915158;29;20127;-95
2023/03/27 00:52:55;;;;;;;7.15;1.70;;;;;;;5.99;94.66;101089.31;4899402;29;20033;-95
2023/03/27 00:55:21;;;;;;;5.47;1.90;;;;;;;5.87;95.72;101061.44;4914841;29;20020;-96
2023/03/27 00:57:52;;;;;;;5.82;1.80;;;;;;;5.96;93.95;101088.56;4899418;29;20056;-95
2023/03/27 01:00:19;;;;;;;5.75;1.77;;;;;;;5.86;98.62;101077.69;4915048;29;20033;-94
2023/03/27 01:02:48;;;;;;;10.82;2.03;;;;;;;6.00;100.00;101113.22;4898197;29;20032;-95
2023/03/27 01:05:15;;;;;;;6.20;2.53;;;;;;;5.90;99.27;101084.44;4914414;29;20036;-95
2023/03/27 01:07:43;;;;;;;7.47;2.20;;;;;;;5.99;96.54;101108.97;4898676;29;20032;-94
2023/03/27 01:10:09;;;;;;;5.22;2.67;;;;;;;6.02;99.65;101113.16;4898579;29;20620;-95
2023/03/27 01:12:43;;;;;;;4.00;1.50;;;;;;;6.04;100.00;101116.53;4898057;29;20487;-95
2023/03/27 01:15:20;;;;;;;6.55;2.08;;;;;;;5.90;94.15;101110.03;4898583;29;20503;-94
2023/03/27 01:18:17;;;;;;;7.45;1.95;;;;;;;5.94;97.14;101108.25;4898084;29;20131;-94
2023/03/27 01:21:07;;;;;;;6.70;1.60;;;;;;;6.00;90.21;101121.75;4913934;29;20029;-95
2023/03/27 01:24:13;;;;;;;3.70;1.52;;;;;;;6.02;92.67;101118.28;4898319;29;20071;-95
2023/03/27 01:27:04;;;;;;;5.32;1.63;;;;;;;5.84;89.37;101102.50;4901386;29;20040;-94
2023/03/27 01:29:45;;;;;;;5.60;1.92;;;;;;;5.91;89.74;101109.16;4898962;29;20024;-95
2023/03/27 01:32:51;;;;;;;8.77;2.97;;;;;;;6.03;92.57;101120.00;4898687;29;20412;-95
2023/03/27 01:35:19;;;;;;;5.00;1.52;;;;;;;5.97;94.44;101115.84;4898328;29;20040;-95
2023/03/27 01:37:54;;;;;;;8.82;2.45;;;;;;;6.08;90.93;101113.84;4897961;29;20033;-95
2023/03/27 01:41:03;;;;;;;3.92;1.45;;;;;;;6.03;91.36;101105.44;4898491;29;20476;-95
2023/03/27 01:43:41;;;;;;;4.53;1.60;;;;;;;5.78;92.96;101092.44;4912980;29;20037;-96
2023/03/27 01:46:18;;;;;;;5.25;1.88;;;;;;;5.85;94.37;101126.41;4898057;29;20040;-95
2023/03/27 01:48:49;;;;;;;5.28;1.63;;;;;;;5.67;95.28;101099.56;4898004;29;20555;-95
2023/03/27 01:51:22;;;;;;;6.07;2.58;;;;;;;5.58;96.92;101109.19;4898212;29;20020;-94
2023/03/27 01:53:57;;;;;;;8.30;2.10;;;;;;;5.56;98.84;101110.09;4913943;29;20057;-94
2023/03/27 01:56:31;;;;;;;7.45;1.90;;;;;;;5.62;97.20;101109.94;4898511;29;20025;-95
2023/03/27 01:59:03;;;;;;;7.72;2.00;;;;;;;5.48;93.92;101094.06;4897749;29;20032;-94
2023/03/27 02:01:42;;;;;;;5.03;1.92;;;;;;;5.44;95.14;101111.25;4897864;29;20061;-95
2023/03/27 02:04:22;;;;;;;7.68;1.88;;;;;;;5.41;95.88;101113.88;4897424;29;20044;-94
2023/03/27 02:06:54;;;;;;;8.52;2.25;;;;;;;5.37;92.69;101125.09;4898941;29;20543;-95
2023/03/27 02:09:24;;;;;;;8.50;2.10;;;;;;;5.38;93.38;101116.50;4897844;29;20025;-94
2023/03/27 02:12:01;;;;;;;6.28;1.85;;;;;;;5.55;94.34;101149.38;4913393;29;20036;-95
2023/03/27 02:14:32;;;;;;;11.07;2.00;;;;;;;5.25;92.07;101108.31;4897871;29;20033;-95
2023/03/27 02:17:06;;;;;;;10.25;2.38;;;;;;;5.44;89.71;101141.09;4897674;29;20060;-95
2023/03/27 02:19:36;;;;;;;11.55;2.38;;;;;;;5.25;88.71;101099.78;4897829;29;20056;-95
2023/03/27 02:22:02;;;;;;;10.38;2.00;;;;;;;5.23;90.39;101107.50;4913165;29;20025;-95
2023/03/27 02:24:27;;;;;;;6.07;2.13;;;;;;;5.36;89.09;101131.94;4897350;29;20081;-95
2023/03/27 02:27:03;;;;;;;8.20;2.05;;;;;;;5.35;89.74;101131.94;4896954;29;20041;-95
2023/03/27 02:29:48;;;;;;;7.07;2.15;;;;;;;5.42;90.31;101141.16;4897538;29;20031;-95
2023/03/27 02:32:27;;;;;;;14.35;3.95;;;;;;;5.48;90.48;101143.56;4913774;29;20028;-95
2023/03/27 02:35:01;;;;;;;8.95;1.92;;;;;;;5.45;91.83;101147.94;4897533;29;20040;-95
2023/03/27 02:37:44;;;;;;;8.63;2.10;;;;;;;5.49;91.96;101150.38;4898038;29;20040;-94
2023/03/27 02:40:10;;;;;;;13.90;2.20;;;;;;;5.44;93.01;101152.22;4897621;29;20017;-95
2023/03/27 02:42:51;;;;;;;11.45;2.00;;;;;;;5.24;90.24;101133.91;4898301;29;20033;-93
2023/03/27 02:45:30;;;;;;;5.18;1.85;;;;;;;5.32;95.31;101153.34;4897877;29;20063;-94
2023/03/27 02:48:11;;;;;;;12.15;1.92;;;;;;;5.14;94.41;101134.16;4897883;29;20480;-95
2023/03/27 02:50:43;;;;;;;7.13;2.17;;;;;;;5.13;95.68;101155.50;4898012;29;20025;-94
2023/03/27 02:53:11;;;;;;;7.40;2.08;;;;;;;5.12;94.52;101146.16;4898112;29;20064;-96
2023/03/27 02:55:41;;;;;;;11.43;2.05;;;;;;;5.18;95.93;101149.44;4916625;29;20060;-95
2023/03/27 02:58:13;;;;;;;7.63;2.42;;;;;;;5.22;94.31;101167.25;4917127;29;20391;-94
2023/03/27 03:00:47;;;;;;;12.13;1.73;;;;;;;5.12;95.84;101147.84;4900923;29;20123;-96
2023/03/27 03:03:26;;;;;;;7.45;1.83;;;;;;;5.22;95.06;101145.91;4900284;29;20029;-94
2023/03/27 03:05:52;;;;;;;7.55;2.15;;;;;;;5.13;92.79;101141.88;4916794;29;20392;-95
2023/03/27 03:08:20;;;;;;;12.25;2.17;;;;;;;5.07;91.44;101140.31;4901181;29;20052;-96
2023/03/27 03:10:46;;;;;;;5.70;2.13;;;;;;;5.25;92.71;101163.78;4901338;29;20036;-95
2023/03/27 03:13:13;;;;;;;11.00;3.22;;;;;;;5.11;91.82;101138.50;4917336;29;20024;-94
2023/03/27 03:15:39;;;;;;;8.65;2.42;;;;;;;5.22;96.50;101156.16;4902096;29;20025;-94
2023/03/27 03:18:06;;;;;;;3.92;1.70;;;;;;;5.01;94.48;101122.53;4902478;29;20028;-95
2023/03/27 03:20:33;;;;;;;13.07;3.85;;;;;;;5.18;93.41;101177.59;4902631;29;20464;-95
2023/03/27 03:22:59;;;;;;;9.57;2.38;;;;;;;5.18;92.53;101175.88;4918237;29;20085;-95
2023/03/27 03:25:25;;;;;;;9.70;2.35;;;;;;;5.06;92.71;101160.78;4917759;29;20029;-95
2023/03/27 03:27:56;;;;;;;10.85;2.28;;;;;;;5.01;91.84;101158.34;4917857;29;20092;-95
2023/03/27 03:30:27;;;;;;;9.88;2.42;;;;;;;5.09;90.98;101165.84;4902150;29;20025;-94
2023/03/27 03:32:54;;;;;;;8.60;2.20;;;;;;;5.13;90.51;101163.16;4900850;29;20028;-95
2023/03/27 03:35:21;;;;;;;10.82;2.15;;;;;;;5.15;90.03;101175.94;4902365;29;20267;-94
2023/03/27 03:37:49;;;;;;;10.68;2.03;;;;;;;5.05;91.00;101164.25;4918157;29;20033;-94
2023/03/27 03:40:15;;;;;;;9.45;3.47;;;;;;;5.09;90.54;101176.91;4901489;29;20028;-95
2023/03/27 03:42:45;;;;;;;9.43;2.53;;;;;;;5.33;90.24;101190.00;4901203;29;20468;-95
2023/03/27 03:45:11;;;;;;;9.60;2.00;;;;;;;5.11;89.09;101187.94;4899453;29;20028;-95
2023/03/27 03:47:36;;;;;;;8.70;2.63;;;;;;;5.22;89.27;101197.09;4899522;29;20035;-94
2023/03/27 03:50:02;;;;;;;8.23;2.42;;;;;;;5.16;89.66;101187.84;4899213;29;20468;-95
2023/03/27 03:52:27;;;;;;;8.82;2.95;;;;;;;5.20;89.04;101199.72;4914222;29;20028;-94
2023/03/27 03:54:52;;;;;;;8.02;2.45;;;;;;;5.25;89.21;101207.28;4899140;29;20043;-96
2023/03/27 03:57:18;;;;;;;15.93;2.50;;;;;;;5.15;88.92;101192.13;4899569;29;20025;-96
2023/03/27 03:59:43;;;;;;;11.15;2.80;;;;;;;5.11;88.32;101180.28;4899486;29;20025;-94
2023/03/27 04:02:11;;;;;;;7.95;2.50;;;;;;;5.07;90.24;101188.91;4899429;29;20084;-96
2023/03/27 04:04:36;;;;;;;7.82;2.08;;;;;;;5.04;90.43;101198.34;4898963;29;20033;-95
2023/03/27 04:07:04;;;;;;;6.75;2.28;;;;;;;4.93;90.88;101206.28;4899552;29;20036;-95
2023/03/27 04:09:29;;;;;;;12.40;2.85;;;;;;;4.78;90.46;101199.78;4900017;29;20032;-94
2023/03/27 04:11:55;;;;;;;15.13;3.00;;;;;;;4.85;90.53;101192.78;4915589;29;20032;-96
2023/03/27 04:14:20;;;;;;;21.33;2.90;;;;;;;4.86;89.47;101197.91;4899428;29;20060;-95
2023/03/27 04:16:46;;;;;;;9.75;3.20;;;;;;;5.00;89.62;101217.19;4899647;29;20029;-95
2023/03/27 04:19:11;;;;;;;8.27;2.38;;;;;;;5.01;89.54;101213.78;4899787;29;20028;-95
2023/03/27 04:21:37;;;;;;;15.00;3.47;;;;;;;4.85;89.58;101205.59;4899319;29;20096;-94
2023/03/27 04:24:03;;;;;;;9.38;2.35;;;;;;;4.88;90.36;101233.69;4900416;29;20653;-95
2023/03/27 04:26:28;;;;;;;9.43;2.70;;;;;;;4.81;89.14;101207.38;4899495;29;20068;-94
2023/03/27 04:28:54;;;;;;;7.93;2.17;;;;;;;4.97;89.33;101220.66;4899487;29;20092;-95
2023/03/27 04:31:19;;;;;;;13.65;2.60;;;;;;;4.79;89.21;101219.34;4899207;29;20027;-94
2023/03/27 04:33:50;;;;;;;9.23;2.72;;;;;;;4.92;89.40;101230.16;4898707;29;20036;-94
2023/03/27 04:36:17;;;;;;;7.07;2.10;;;;;;;5.00;89.16;101238.53;4899103;29;20083;-95
2023/03/27 04:38:44;;;;;;;7.25;2.03;;;;;;;4.66;89.77;101198.31;4899339;29;20310;-95
2023/03/27 04:41:10;;;;;;;6.32;2.20;;;;;;;4.78;89.76;101216.81;4915064;29;20024;-95
2023/03/27 04:43:35;;;;;;;9.63;2.65;;;;;;;4.67;88.96;101210.22;4898894;29;20017;-95
2023/03/27 04:46:05;;;;;;;6.00;2.30;;;;;;;4.87;89.74;101237.94;4898627;29;20088;-95
2023/03/27 04:48:31;;;;;;;6.47;2.05;;;;;;;4.75;90.55;101227.97;4914856;29;20502;-95
2023/03/27 04:50:56;;;;;;;5.60;2.00;;;;;;;4.74;90.55;101233.97;4898605;29;20024;-95
2023/03/27 04:53:22;;;;;;;6.50;2.05;;;;;;;4.56;89.96;101232.63;4898782;29;20092;-95
2023/03/27 04:55:49;;;;;;;7.65;2.03;;;;;;;4.49;90.95;101246.41;4898694;29;20084;-94
2023/03/27 04:58:16;;;;;;;12.25;2.15;;;;;;;4.28;92.74;101235.69;4898593;29;20058;-95
2023/03/27 05:00:49;;;;;;;8.65;2.53;;;;;;;4.25;91.64;101248.53;4898148;29;20111;-95
2023/03/27 05:03:17;;;;;;;8.45;2.10;;;;;;;4.20;92.15;101229.06;4913846;29;20025;-94
2023/03/27 05:05:46;;;;;;;11.10;2.40;;;;;;;4.14;92.39;101232.53;4897688;29;20088;-95
2023/03/27 05:08:11;;;;;;;7.88;2.53;;;;;;;4.26;92.27;101234.88;4897876;29;20025;-95
2023/03/27 05:10:37;;;;;;;8.55;2.08;;;;;;;4.39;92.23;101239.75;4898112;29;20064;-95
2023/03/27 05:13:03;;;;;;;10.27;2.80;;;;;;;4.40;94.37;101246.56;4898110;29;20617;-94
2023/03/27 05:15:31;;;;;;;7.65;2.83;;;;;;;4.56;92.69;101263.31;4897751;29;20033;-95
2023/03/27 05:17:57;;;;;;;6.22;2.50;;;;;;;4.49;93.42;101259.19;4897942;29;20064;-95
2023/03/27 05:20:23;;;;;;;4.28;1.80;;;;;;;4.60;91.89;101274.28;4898111;29;20028;-95
2023/03/27 05:22:52;;;;;;;10.02;2.22;;;;;;;4.55;91.97;101264.16;4897609;29;20029;-96
2023/03/27 05:25:17;;;;;;;4.63;1.58;;;;;;;4.52;93.79;101264.22;4913239;29;20083;-95
2023/03/27 05:27:47;;;;;;;10.40;2.63;;;;;;;4.62;91.76;101291.28;4913243;29;20032;-94
2023/03/27 05:30:15;;;;;;;9.60;2.30;;;;;;;4.53;91.20;101267.63;4898065;29;20028;-94
2023/03/27 05:32:47;;;;;;;4.93;2.03;;;;;;;4.72;91.82;101286.84;4913128;29;20056;-95
2023/03/27 05:35:15;;;;;;;8.35;2.20;;;;;;;4.69;92.13;101295.41;4899137;29;20461;-95
2023/03/27 05:37:43;;;;;;;11.82;2.13;;;;;;;4.67;90.73;101297.16;4898878;29;20024;-94
2023/03/27 05:40:08;;;;;;;6.47;1.75;;;;;;;4.80;92.06;101302.03;4897890;29;20033;-94
2023/03/27 05:42:34;;;;;;;9.20;2.15;;;;;;;4.75;91.45;101308.97;4897929;29;20499;-95
2023/03/27 05:45:00;;;;;;;8.30;2.47;;;;;;;4.58;92.86;101292.22;4913966;29;20032;-95
2023/03/27 05:47:25;;;;;;;6.47;2.30;;;;;;;4.64;93.24;101298.94;4898346;29;20033;-95
2023/03/27 05:49:51;;;;;;;6.53;2.42;;;;;;;4.55;93.96;101292.28;4897742;29;20028;-95
2023/03/27 05:52:16;;;;;;;7.78;2.50;;;;;;;4.61;94.08;101310.06;4898073;29;20518;-94
2023/03/27 05:54:42;;;;;;;6.30;2.15;;;;;;;4.67;95.44;101322.72;4898566;29;20039;-95
2023/03/27 05:57:07;;;;;;;6.93;2.40;;;;;;;4.65;95.25;101313.41;4898013;29;20056;-94
2023/03/27 05:59:33;;;;;;;8.18;2.00;;;;;;;4.63;93.87;101299.78;4898474;29;20053;-94
2023/03/27 06:01:59;;;;;;;13.75;2.10;;;;;;;4.68;93.73;101303.09;4897354;29;20079;-95
2023/03/27 06:04:24;;;;;;;8.43;2.47;;;;;;;4.75;93.86;101308.97;4896820;29;20029;-96
2023/03/27 06:06:49;;;;;;;7.18;2.45;;;;;;;4.72;93.11;101309.84;4896495;29;20035;-96
2023/03/27 06:09:15;;;;;;;7.63;2.45;;;;;;;4.89;92.50;101341.06;4896679;29;20120;-94
2023/03/27 06:11:41;;;;;;;11.75;2.95;;;;;;;4.81;91.39;101316.53;4896436;29;20114;-95
2023/03/27 06:14:07;;;;;;;5.63;2.58;;;;;;;4.89;91.22;101319.75;4896476;29;20064;-95
2023/03/27 06:16:32;;;;;;;9.88;2.42;;;;;;;4.84;91.32;101319.84;4896722;29;20491;-94
2023/03/27 06:18:58;;;;;;;8.23;2.53;;;;;;;4.94;91.47;101325.63;4896589;29;20036;-96
2023/03/27 06:21:23;;;;;;;9.20;2.38;;;;;;;4.97;89.94;101329.84;4912404;29;20050;-95
2023/03/27 06:23:48;;;;;;;16.42;2.17;;;;;;;5.07;88.87;101324.53;4897198;29;20511;-95
2023/03/27 06:26:14;;;;;;;11.38;2.75;;;;;;;5.24;88.14;101354.03;4896880;29;20391;-95
2023/03/27 06:28:39;;;;;;;6.63;2.05;;;;;;;5.06;87.70;101314.31;4898235;29;20155;-96
2023/03/27 06:31:05;;;;;;;5.78;2.10;;;;;;;5.11;87.19;101338.91;4900803;29;20489;-95
2023/03/27 06:33:31;;;;;;;7.78;2.60;;;;;;;5.09;88.05;101329.59;4901379;29;20032;-93
2023/03/27 06:35:59;;;;;;;10.18;2.60;;;;;;;5.19;88.04;101348.16;4901504;29;20033;-95
2023/03/27 06:38:30;;;;;;;10.63;3.60;;;;;;;5.28;88.22;101343.69;4901141;29;20546;-95
2023/03/27 06:40:58;;;;;;;;;;;;;;;5.51;88.31;101367.97;4902247;29;20131;-96
2023/03/27 06:43:23;;;;;;;6.03;2.13;;;;;;;5.50;87.47;101361.16;4901093;29;19922;-94
2023/03/27 06:45:49;;;;;;;11.57;3.85;;;;;;;5.39;86.19;101348.59;4900640;29;20037;-96
2023/03/27 06:48:17;;;;;;;10.85;2.30;;;;;;;5.38;86.15;101346.06;4916710;29;20123;-95
2023/03/27 06:50:44;;;;;;;6.78;2.20;;;;;;;5.66;86.77;101366.81;4899734;29;20025;-96
2023/03/27 06:53:10;;;;;;;10.05;2.63;;;;;;;5.73;86.45;101370.88;4915383;29;20028;-95
2023/03/27 06:55:36;;;;;;;9.07;2.20;;;;;;;5.54;84.18;101326.94;4899705;29;20032;-95
2023/03/27 06:58:02;;;;;;;8.55;2.65;;;;;;;5.95;82.88;101341.41;4915431;29;20450;-96
2023/03/27 07:00:31;;;;;;;4.72;2.03;;;;;;;6.16;80.16;101377.63;4915333;29;20029;-96
2023/03/27 07:03:02;;;;;;;12.88;3.65;;;;;;;6.55;78.93;101367.25;4899560;29;20031;-95
2023/03/27 07:05:32;;;;;;;7.15;1.95;;;;;;;6.47;77.49;101366.63;4915916;29;20029;-96
2023/03/27 07:07:58;;;;;;;6.15;2.00;;;;;;;6.64;76.00;101356.78;4915602;29;20036;-94
2023/03/27 07:10:24;;;;;;;12.63;2.20;;;;;;;6.80;75.35;101381.16;4899839;29;20025;-95
2023/03/27 07:12:55;;;;;;;9.35;2.20;;;;;;;6.85;73.53;101366.47;4915154;29;20024;-96
2023/03/27 07:15:22;;;;;;;9.18;2.45;;;;;;;6.94;73.55;101383.31;4899492;29;20059;-95
2023/03/27 07:17:52;;;;;;;10.32;2.20;;;;;;;7.09;73.08;101361.53;4915114;29;20112;-96
2023/03/27 07:20:18;;;;;;;5.05;1.58;;;;;;;7.16;70.67;101378.44;4900578;29;20028;-95
2023/03/27 07:22:43;;;;;;;6.72;1.83;;;;;;;7.13;70.19;101352.84;4900016;29;20112;-95
2023/03/27 07:25:11;;;;;;;5.47;1.90;;;;;;;7.75;69.98;101402.44;4899768;29;20044;-95
2023/03/27 07:27:37;;;;;;;6.50;2.63;;;;;;;7.77;68.77;101383.50;4899449;29;20510;-96
2023/03/27 07:30:06;;;;;;;6.55;2.00;;;;;;;7.95;68.12;101384.69;4899829;29;20032;-95
2023/03/27 07:32:35;;;;;;;4.88;1.85;;;;;;;7.41;69.22;101381.16;4899368;29;20032;-96
2023/03/27 07:35:01;;;;;;;8.48;1.80;;;;;;;7.20;69.92;101417.72;4914807;29;20484;-95
2023/03/27 07:37:26;;;;;;;10.27;2.53;;;;;;;7.03;69.53;101397.63;4914787;29;20053;-96
2023/03/27 07:39:52;;;;;;;9.48;2.08;;;;;;;7.31;67.63;101389.16;4917357;29;20020;-95
2023/03/27 07:42:18;;;;;;;6.47;2.30;;;;;;;7.22;68.58;101409.09;4899309;29;20021;-95
2023/03/27 07:44:43;;;;;;;5.82;2.35;;;;;;;7.59;68.54;101415.72;4898913;29;20044;-96
2023/03/27 07:47:09;;;;;;;10.18;1.80;;;;;;;7.53;69.07;101392.78;4899223;29;20036;-94
2023/03/27 07:49:34;;;;;;;5.18;1.77;;;;;;;7.91;66.02;101414.75;4899121;29;20111;-96
2023/03/27 07:52:00;;;;;;;7.45;1.92;;;;;;;8.93;63.23;101409.75;4898731;29;20052;-95
2023/03/27 07:54:30;;;;;;;9.98;2.00;;;;;;;8.54;62.32;101376.75;4898830;29;20024;-94
2023/03/27 07:56:55;;;;;;;10.13;2.75;;;;;;;8.89;62.08;101400.44;4915011;29;20025;-95
2023/03/27 07:59:21;;;;;;;5.40;1.67;;;;;;;10.98;56.17;101402.59;4900192;29;20029;-94
2023/03/27 08:01:49;;;;;;;6.57;1.73;;;;;;;9.60;57.91;101413.34;4899294;29;20119;-95
2023/03/27 08:04:18;;;;;;;8.70;1.90;;;;;;;9.80;57.42;101404.84;4898901;29;20040;-95
2023/03/27 08:06:43;;;;;;;7.47;1.58;;;;;;;10.80;57.19;101426.63;4898611;29;20032;-95
2023/03/27 08:09:09;;;;;;;10.75;2.53;;;;;;;10.89;54.95;101428.84;4899321;29;20132;-96
2023/03/27 08:11:37;;;;;;;5.32;1.45;;;;;;;11.07;53.76;101402.22;4898946;29;20119;-95
2023/03/27 08:14:03;;;;;;;8.15;2.05;;;;;;;11.51;51.37;101403.69;4898454;29;20028;-95
2023/03/27 08:16:28;;;;;;;7.30;1.58;;;;;;;13.31;47.72;101415.56;4914296;29;20032;-95
2023/03/27 08:18:54;;;;;;;7.47;1.50;;;;;;;14.08;45.21;101387.09;4898643;29;20024;-96
2023/03/27 08:21:20;;;;;;;8.82;1.30;;;;;;;13.12;46.73;101431.22;4898518;29;20060;-94
2023/03/27 08:23:46;;;;;;;5.72;1.73;;;;;;;16.02;40.89;101420.44;4898274;29;20055;-96
2023/03/27 08:26:13;;;;;;;5.60;1.58;;;;;;;14.61;43.06;101425.69;4898489;29;20032;-96
2023/03/27 08:28:39;;;;;;;3.50;1.20;;;;;;;17.73;38.46;101419.28;4899861;29;20024;-96
2023/03/27 08:31:10;;;;;;;6.45;1.55;;;;;;;18.07;37.70;101450.81;4898958;29;20539;-95
2023/03/27 08:33:36;;;;;;;;;;;;;;;24.12;29.63;101463.00;4898959;29;20120;-95
2023/03/27 08:36:03;;;;;;;11.30;2.15;;;;;;;25.87;26.33;101457.47;4898693;29;19958;-96
2023/03/27 08:38:32;;;;;;;6.95;1.70;;;;;;;27.91;24.62;101453.44;4897624;29;20056;-95
2023/03/27 08:40:58;;;;;;;4.43;1.02;;;;;;;28.90;22.78;101458.69;4898250;29;20119;-96
2023/03/27 08:43:38;;;;;;;3.70;1.25;;;;;;;27.57;23.81;101445.84;4898673;29;20021;-96
2023/03/27 08:46:06;;;;;;;10.43;1.80;;;;;;;28.26;22.41;101476.88;4914249;29;20563;-96
2023/03/27 08:48:43;;;;;;;6.50;1.50;;;;;;;27.45;23.51;101448.09;4898192;29;20558;-96
2023/03/27 08:51:15;;;;;;;4.88;1.15;;;;;;;26.69;23.17;101444.22;4914769;29;20039;-96
2023/03/27 08:53:50;;;;;;;6.63;1.30;;;;;;;26.36;23.15;101451.38;4914412;29;20116;-95
2023/03/27 08:56:17;;;;;;;4.35;1.20;;;;;;;27.22;22.82;101453.34;4897753;29;20021;-96
2023/03/27 08:58:44;;;;;;;9.18;1.33;;;;;;;29.58;21.79;101463.78;4914161;29;20064;-96
2023/03/27 09:01:59;;;;;;;5.20;1.38;;;;;;;31.24;19.84;101473.06;4898705;29;20036;-96
2023/03/27 09:04:37;;;;;;;8.73;1.27;;;;;;;32.79;19.96;101502.41;4913016;29;20519;-96
2023/03/27 09:07:18;;;;;;;8.90;1.88;;;;;;;30.98;20.01;101505.75;4897924;29;20519;-96
2023/03/27 09:09:46;;;;;;;10.98;1.88;;;;;;;27.86;22.24;101508.06;4898747;29;20028;-96
2023/03/27 09:12:23;;;;;;;7.00;1.85;;;;;;;29.98;20.96;101498.81;4899197;29;20033;-96
2023/03/27 09:15:08;;;;;;;7.10;1.80;;;;;;;30.45;20.71;101503.53;4899290;29;20063;-96
2023/03/27 09:17:48;;;;;;;3.50;0.98;;;;;;;31.37;19.44;101488.28;4898007;29;20043;-96
2023/03/27 09:20:35;;;;;;;5.95;1.42;;;;;;;32.14;19.39;101489.72;4897848;29;20033;-96
2023/03/27 09:23:12;;;;;;;8.52;1.23;;;;;;;32.57;18.13;101473.25;4897689;29;20029;-96
2023/03/27 09:25:45;;;;;;;5.97;1.38;;;;;;;32.86;18.35;101473.78;4914042;29;20032;-96
2023/03/27 09:28:19;;;;;;;6.10;1.20;;;;;;;31.43;18.68;101476.00;4914143;29;20037;-96
2023/03/27 09:30:45;;;;;;;5.78;1.48;;;;;;;33.09;17.51;101475.97;4898971;29;20059;-96
2023/03/27 09:33:11;;;;;;;5.60;1.38;;;;;;;33.78;16.84;101487.78;4914124;29;20029;-96
2023/03/27 09:35:38;;;;;;;4.22;1.33;;;;;;;33.58;17.03;101517.38;4899491;29;20049;-96
2023/03/27 09:38:30;;;;;;;5.53;1.30;;;;;;;33.79;17.15;101499.31;4900403;29;20043;-96
2023/03/27 09:41:17;;;;;;;4.88;0.98;;;;;;;35.99;15.99;101516.50;4914233;29;20067;-96
2023/03/27 09:43:55;;;;;;;7.43;1.00;;;;;;;35.62;16.26;101531.97;4899524;29;20237;-96
2023/03/27 09:46:24;;;;;;;7.53;0.90;;;;;;;33.79;16.85;101534.94;4899604;29;20072;-96
2023/03/27 09:48:56;;;;;;;7.38;2.08;;;;;;;34.44;16.73;101520.47;4914618;29;20519;-96
2023/03/27 09:51:43;;;;;;;6.40;1.25;;;;;;;34.22;16.51;101534.25;4898827;29;20033;-96
2023/03/27 09:54:13;;;;;;;6.43;1.00;;;;;;;31.14;18.52;101520.59;4914066;29;20029;-96
2023/03/27 09:56:55;;;;;;;10.07;1.27;;;;;;;27.94;21.50;101505.34;4914257;29;20028;-96
2023/03/27 09:59:23;;;;;;;6.47;1.40;;;;;;;26.97;21.78;101478.25;4897949;29;20040;-96
2023/03/27 10:01:51;;;;;;;4.88;1.10;;;;;;;28.59;20.69;101534.03;4897583;29;20028;-96
2023/03/27 10:04:20;;;;;;;7.45;2.20;;;;;;;30.15;19.52;101596.06;4915937;29;20020;-96
2023/03/27 10:07:00;;;;;;;5.93;1.30;;;;;;;31.92;18.53;101574.50;4917341;29;20028;-96
2023/03/27 10:09:30;;;;;;;2.40;1.05;;;;;;;30.88;19.57;101570.09;4917294;29;20028;-96
2023/03/27 10:12:06;;;;;;;8.35;1.15;;;;;;;31.14;18.44;101628.13;4901301;29;20028;-96
2023/03/27 10:14:35;;;;;;;5.03;0.93;;;;;;;31.17;18.72;101589.56;4902406;29;20061;-96
2023/03/27 10:17:02;;;;;;;4.80;1.25;;;;;;;32.03;18.08;101645.22;4901900;29;20092;-96
2023/03/27 10:19:29;;;;;;;4.00;0.90;;;;;;;32.56;18.48;101615.13;4917215;29;20459;-96
2023/03/27 10:21:58;;;;;;;7.75;1.23;;;;;;;32.59;19.46;101473.03;4901293;29;20028;-96
2023/03/27 10:24:33;;;;;;;4.38;1.00;;;;;;;33.22;18.55;101491.19;4901392;29;20472;-96
2023/03/27 10:27:03;;;;;;;3.70;1.13;;;;;;;32.93;18.10;101674.34;4901177;29;20040;-96
2023/03/27 10:29:34;;;;;;;7.70;1.20;;;;;;;32.88;18.75;101687.53;4902007;29;20040;-96
2023/03/27 10:32:02;;;;;;;;;;;;;;;29.91;19.17;101583.94;4918005;29;20475;-96
2023/03/27 10:34:51;;;;;;;7.70;1.60;;;;;;;31.73;18.40;101557.41;4900494;29;19919;-96
2023/03/27 10:37:29;;;;;;;6.70;1.25;;;;;;;32.26;18.56;101471.19;4901254;29;20036;-96
2023/03/27 10:39:58;;;;;;;6.03;1.55;;;;;;;31.33;18.42;101461.16;4916823;29;20031;-96
2023/03/27 10:42:30;;;;;;;4.53;1.00;;;;;;;32.54;17.73;101472.84;4901486;29;20029;-96
2023/03/27 10:44:56;;;;;;;5.15;1.17;;;;;;;33.52;17.30;101485.25;4901000;29;20064;-96
2023/03/27 10:47:29;;;;;;;4.13;0.90;;;;;;;32.70;17.96;101496.47;4901648;29;20024;-96
2023/03/27 10:50:07;;;;;;;4.85;1.73;;;;;;;30.16;19.54;101499.19;4901036;29;20411;-96
2023/03/27 10:52:36;;;;;;;3.22;0.90;;;;;;;24.39;25.52;101502.63;4900524;29;20021;-96
2023/03/27 10:55:23;;;;;;;5.05;0.90;;;;;;;21.95;27.40;101471.91;4900838;29;20092;-96
2023/03/27 10:57:56;;;;;;;4.88;1.10;;;;;;;19.73;29.85;101472.22;4901615;29;20032;-95
2023/03/27 11:01:07;;;;;;;6.30;1.00;;;;;;;20.85;29.10;101450.81;4916475;29;20483;-96
2023/03/27 11:03:40;;;;;;;6.28;1.17;;;;;;;20.13;29.64;101463.81;4900582;29;20036;-95
2023/03/27 11:06:14;;;;;;;5.32;1.10;;;;;;;18.81;32.61;101496.72;4900181;29;20060;-96
2023/03/27 11:08:53;;;;;;;3.88;1.27;;;;;;;18.83;32.15;101487.94;4900413;29;20048;-96
2023/03/27 11:11:25;;;;;;;3.05;0.85;;;;;;;18.06;31.89;101498.78;4900209;29;20040;-95
2023/03/27 11:13:53;;;;;;;7.60;1.10;;;;;;;16.42;35.29;101502.97;4899857;29;20423;-95
2023/03/27 11:16:27;;;;;;;6.65;1.45;;;;;;;14.80;39.03;101483.41;4900469;29;20032;-96
2023/03/27 11:19:02;;;;;;;7.13;1.70;;;;;;;15.67;38.28;101505.09;4900591;29;20032;-96
2023/03/27 11:21:48;;;;;;;5.35;1.15;;;;;;;15.23;38.12;101496.47;4899768;29;20021;-96
2023/03/27 11:24:37;;;;;;;4.15;0.90;;;;;;;15.13;38.49;101488.38;4900346;29;20042;-96
2023/03/27 11:27:11;;;;;;;8.48;1.30;;;;;;;15.57;38.46;101504.84;4900701;29;20479;-96
2023/03/27 11:30:13;;;;;;;2.60;0.80;;;;;;;15.35;41.26;101480.13;4915684;29;20052;-95
2023/03/27 11:33:04;;;;;;;6.90;1.45;;;;;;;15.02;39.23;101487.34;4899339;29;20396;-96
2023/03/27 11:35:37;;;;;;;4.05;1.33;;;;;;;14.77;39.14;101465.41;4899212;29;20034;-95
2023/03/27 11:38:22;;;;;;;6.55;1.17;;;;;;;14.15;40.47;101480.22;4899119;29;20024;-96
2023/03/27 11:40:51;;;;;;;3.67;0.80;;;;;;;15.18;38.20;101496.75;4898954;29;20110;-95
2023/03/27 11:43:19;;;;;;;2.05;1.00;;;;;;;15.91;38.30;101477.56;4914428;29;20116;-95
2023/03/27 11:46:12;;;;;;;5.25;1.00;;;;;;;16.67;36.13;101500.44;4899217;29;20044;-96